sensor_id;sensor_type;location;lat;lon;timestamp;temperature;humidity
16505;HTU21D;8365;51.030;4.696;2023-08-06T00:01:29;16.48;118.99
16505;HTU21D;8365;51.030;4.696;2023-08-06T00:04:00;16.28;118.99
16505;HTU21D;8365;51.030;4.696;2023-08-06T00:06:31;16.49;118.99
16505;HTU21D;8365;51.030;4.696;2023-08-06T00:09:01;16.13;118.99
16505;HTU21D;8365;51.030;4.696;2023-08-06T00:11:32;16.15;118.99
16505;HTU21D;8365;51.030;4.696;2023-08-06T00:14:02;16.31;118.99
16505;HTU21D;8365;51.030;4.696;2023-08-06T00:16:33;16.54;118.99
16505;HTU21D;8365;51.030;4.696;2023-08-06T00:19:03;16.39;118.99
16505;HTU21D;8365;51.030;4.696;2023-08-06T00:21:33;16.41;118.99
16505;HTU21D;8365;51.030;4.696;2023-08-06T00:24:06;16.54;118.99
16505;HTU21D;8365;51.030;4.696;2023-08-06T00:26:39;16.66;118.99
16505;HTU21D;8365;51.030;4.696;2023-08-06T00:29:09;16.64;118.99
16505;HTU21D;8365;51.030;4.696;2023-08-06T00:31:40;16.61;118.99
16505;HTU21D;8365;51.030;4.696;2023-08-06T00:34:10;16.63;118.99
16505;HTU21D;8365;51.030;4.696;2023-08-06T00:36:41;16.61;118.99
16505;HTU21D;8365;51.030;4.696;2023-08-06T00:39:11;16.27;118.99
16505;HTU21D;8365;51.030;4.696;2023-08-06T00:41:42;16.37;118.99
16505;HTU21D;8365;51.030;4.696;2023-08-06T00:44:12;16.35;118.99
16505;HTU21D;8365;51.030;4.696;2023-08-06T00:46:43;16.60;118.99
16505;HTU21D;8365;51.030;4.696;2023-08-06T00:49:16;16.39;118.99
16505;HTU21D;8365;51.030;4.696;2023-08-06T00:51:47;16.59;118.99
16505;HTU21D;8365;51.030;4.696;2023-08-06T00:54:17;16.30;118.99
16505;HTU21D;8365;51.030;4.696;2023-08-06T00:56:48;16.63;118.99
16505;HTU21D;8365;51.030;4.696;2023-08-06T00:59:19;16.70;118.99
16505;HTU21D;8365;51.030;4.696;2023-08-06T01:01:52;16.98;118.99
16505;HTU21D;8365;51.030;4.696;2023-08-06T01:04:23;17.20;118.99
16505;HTU21D;8365;51.030;4.696;2023-08-06T01:09:53;16.91;118.99
16505;HTU21D;8365;51.030;4.696;2023-08-06T01:17:44;16.50;118.99
16505;HTU21D;8365;51.030;4.696;2023-08-06T01:20:15;16.79;118.99
16505;HTU21D;8365;51.030;4.696;2023-08-06T01:22:46;16.50;118.99
16505;HTU21D;8365;51.030;4.696;2023-08-06T01:25:16;16.73;118.99
16505;HTU21D;8365;51.030;4.696;2023-08-06T01:27:50;16.84;118.99
16505;HTU21D;8365;51.030;4.696;2023-08-06T01:30:26;17.16;118.99
16505;HTU21D;8365;51.030;4.696;2023-08-06T01:32:59;17.03;118.99
16505;HTU21D;8365;51.030;4.696;2023-08-06T01:35:31;17.25;118.99
16505;HTU21D;8365;51.030;4.696;2023-08-06T01:38:02;17.18;118.99
16505;HTU21D;8365;51.030;4.696;2023-08-06T01:40:33;17.30;118.99
16505;HTU21D;8365;51.030;4.696;2023-08-06T01:43:05;17.29;118.99
16505;HTU21D;8365;51.030;4.696;2023-08-06T01:45:35;17.39;118.99
16505;HTU21D;8365;51.030;4.696;2023-08-06T01:48:06;17.15;118.99
16505;HTU21D;8365;51.030;4.696;2023-08-06T01:50:36;17.34;118.99
16505;HTU21D;8365;51.030;4.696;2023-08-06T01:53:07;17.44;118.99
16505;HTU21D;8365;51.030;4.696;2023-08-06T01:55:37;17.49;118.99
16505;HTU21D;8365;51.030;4.696;2023-08-06T01:58:07;17.44;118.99
16505;HTU21D;8365;51.030;4.696;2023-08-06T02:00:38;17.67;118.99
16505;HTU21D;8365;51.030;4.696;2023-08-06T02:03:09;17.60;118.99
16505;HTU21D;8365;51.030;4.696;2023-08-06T02:05:39;17.76;118.99
16505;HTU21D;8365;51.030;4.696;2023-08-06T02:08:10;17.81;118.99
16505;HTU21D;8365;51.030;4.696;2023-08-06T02:10:40;17.91;118.99
16505;HTU21D;8365;51.030;4.696;2023-08-06T02:13:11;17.73;118.99
16505;HTU21D;8365;51.030;4.696;2023-08-06T02:15:43;17.85;118.99
16505;HTU21D;8365;51.030;4.696;2023-08-06T02:18:17;17.84;118.99
16505;HTU21D;8365;51.030;4.696;2023-08-06T02:20:58;17.91;118.99
16505;HTU21D;8365;51.030;4.696;2023-08-06T02:23:28;17.76;118.99
16505;HTU21D;8365;51.030;4.696;2023-08-06T02:26:03;17.72;118.99
16505;HTU21D;8365;51.030;4.696;2023-08-06T02:28:34;17.70;118.99
16505;HTU21D;8365;51.030;4.696;2023-08-06T02:31:04;17.37;118.99
16505;HTU21D;8365;51.030;4.696;2023-08-06T02:33:39;17.56;118.99
16505;HTU21D;8365;51.030;4.696;2023-08-06T02:36:09;17.52;118.99
16505;HTU21D;8365;51.030;4.696;2023-08-06T02:38:40;17.19;118.99
16505;HTU21D;8365;51.030;4.696;2023-08-06T02:41:10;17.26;118.99
16505;HTU21D;8365;51.030;4.696;2023-08-06T02:43:41;17.45;118.99
16505;HTU21D;8365;51.030;4.696;2023-08-06T02:46:11;17.66;118.99
16505;HTU21D;8365;51.030;4.696;2023-08-06T02:48:41;17.44;118.99
16505;HTU21D;8365;51.030;4.696;2023-08-06T02:51:12;17.49;118.99
16505;HTU21D;8365;51.030;4.696;2023-08-06T02:53:42;17.53;118.99
16505;HTU21D;8365;51.030;4.696;2023-08-06T02:56:15;17.62;118.99
16505;HTU21D;8365;51.030;4.696;2023-08-06T02:58:45;17.61;118.99
16505;HTU21D;8365;51.030;4.696;2023-08-06T03:01:16;17.60;118.99
16505;HTU21D;8365;51.030;4.696;2023-08-06T03:03:49;17.53;118.99
16505;HTU21D;8365;51.030;4.696;2023-08-06T03:06:20;17.55;118.99
16505;HTU21D;8365;51.030;4.696;2023-08-06T03:08:50;17.46;118.99
16505;HTU21D;8365;51.030;4.696;2023-08-06T03:11:21;17.44;118.99
16505;HTU21D;8365;51.030;4.696;2023-08-06T03:13:51;17.45;118.99
16505;HTU21D;8365;51.030;4.696;2023-08-06T03:16:21;17.68;118.99
16505;HTU21D;8365;51.030;4.696;2023-08-06T03:18:52;17.37;118.99
16505;HTU21D;8365;51.030;4.696;2023-08-06T03:21:25;17.47;118.99
16505;HTU21D;8365;51.030;4.696;2023-08-06T03:23:56;17.37;118.99
16505;HTU21D;8365;51.030;4.696;2023-08-06T03:26:26;17.38;118.99
16505;HTU21D;8365;51.030;4.696;2023-08-06T03:28:57;16.98;118.99
16505;HTU21D;8365;51.030;4.696;2023-08-06T03:31:27;17.11;118.99
16505;HTU21D;8365;51.030;4.696;2023-08-06T03:33:57;17.07;118.99
16505;HTU21D;8365;51.030;4.696;2023-08-06T03:36:28;17.08;118.99
16505;HTU21D;8365;51.030;4.696;2023-08-06T03:38:58;17.11;118.99
16505;HTU21D;8365;51.030;4.696;2023-08-06T03:41:29;16.95;118.99
16505;HTU21D;8365;51.030;4.696;2023-08-06T03:44:01;17.05;118.99
16505;HTU21D;8365;51.030;4.696;2023-08-06T03:46:34;16.94;118.99
16505;HTU21D;8365;51.030;4.696;2023-08-06T03:49:04;17.02;118.99
16505;HTU21D;8365;51.030;4.696;2023-08-06T03:51:34;17.14;118.99
16505;HTU21D;8365;51.030;4.696;2023-08-06T03:54:05;17.02;118.99
16505;HTU21D;8365;51.030;4.696;2023-08-06T03:56:35;17.17;118.99
16505;HTU21D;8365;51.030;4.696;2023-08-06T03:59:06;17.08;118.99
16505;HTU21D;8365;51.030;4.696;2023-08-06T04:01:36;17.21;118.99
16505;HTU21D;8365;51.030;4.696;2023-08-06T04:04:07;17.17;118.99
16505;HTU21D;8365;51.030;4.696;2023-08-06T04:06:37;17.43;118.99
16505;HTU21D;8365;51.030;4.696;2023-08-06T04:09:08;17.21;118.99
16505;HTU21D;8365;51.030;4.696;2023-08-06T04:11:38;17.08;118.99
16505;HTU21D;8365;51.030;4.696;2023-08-06T04:14:08;17.25;118.99
16505;HTU21D;8365;51.030;4.696;2023-08-06T04:16:39;17.36;118.99
16505;HTU21D;8365;51.030;4.696;2023-08-06T04:19:12;17.23;118.99
16505;HTU21D;8365;51.030;4.696;2023-08-06T04:21:42;17.16;118.99
16505;HTU21D;8365;51.030;4.696;2023-08-06T04:24:13;17.14;118.99
16505;HTU21D;8365;51.030;4.696;2023-08-06T04:26:46;17.33;118.99
16505;HTU21D;8365;51.030;4.696;2023-08-06T04:29:16;17.34;118.99
16505;HTU21D;8365;51.030;4.696;2023-08-06T04:31:47;16.62;118.99
16505;HTU21D;8365;51.030;4.696;2023-08-06T04:34:17;16.37;118.99
16505;HTU21D;8365;51.030;4.696;2023-08-06T04:36:48;16.34;118.99
16505;HTU21D;8365;51.030;4.696;2023-08-06T04:39:21;16.16;118.99
16505;HTU21D;8365;51.030;4.696;2023-08-06T04:41:52;16.16;118.99
16505;HTU21D;8365;51.030;4.696;2023-08-06T04:44:22;16.20;118.99
16505;HTU21D;8365;51.030;4.696;2023-08-06T04:46:53;15.86;118.99
16505;HTU21D;8365;51.030;4.696;2023-08-06T04:49:26;15.86;118.99
16505;HTU21D;8365;51.030;4.696;2023-08-06T04:51:56;15.69;118.99
16505;HTU21D;8365;51.030;4.696;2023-08-06T04:54:27;15.56;118.99
16505;HTU21D;8365;51.030;4.696;2023-08-06T04:56:57;15.33;118.99
16505;HTU21D;8365;51.030;4.696;2023-08-06T04:59:28;15.06;118.99
16505;HTU21D;8365;51.030;4.696;2023-08-06T05:01:58;15.06;118.99
16505;HTU21D;8365;51.030;4.696;2023-08-06T05:04:29;15.11;118.99
16505;HTU21D;8365;51.030;4.696;2023-08-06T05:06:59;14.99;118.99
16505;HTU21D;8365;51.030;4.696;2023-08-06T05:09:30;14.75;118.99
16505;HTU21D;8365;51.030;4.696;2023-08-06T05:12:03;14.78;118.99
16505;HTU21D;8365;51.030;4.696;2023-08-06T05:14:34;14.80;118.99
16505;HTU21D;8365;51.030;4.696;2023-08-06T05:17:05;14.85;118.99
16505;HTU21D;8365;51.030;4.696;2023-08-06T05:19:35;14.82;118.99
16505;HTU21D;8365;51.030;4.696;2023-08-06T05:22:06;14.88;118.99
16505;HTU21D;8365;51.030;4.696;2023-08-06T05:24:36;14.82;118.99
16505;HTU21D;8365;51.030;4.696;2023-08-06T05:27:06;14.87;118.99
16505;HTU21D;8365;51.030;4.696;2023-08-06T05:29:37;14.70;118.99
16505;HTU21D;8365;51.030;4.696;2023-08-06T05:32:07;14.73;118.99
16505;HTU21D;8365;51.030;4.696;2023-08-06T05:34:38;14.73;118.99
16505;HTU21D;8365;51.030;4.696;2023-08-06T05:37:08;14.82;118.99
16505;HTU21D;8365;51.030;4.696;2023-08-06T05:39:39;14.91;118.99
16505;HTU21D;8365;51.030;4.696;2023-08-06T05:42:10;14.84;118.99
16505;HTU21D;8365;51.030;4.696;2023-08-06T05:44:40;14.87;118.99
16505;HTU21D;8365;51.030;4.696;2023-08-06T05:47:11;14.86;118.99
16505;HTU21D;8365;51.030;4.696;2023-08-06T05:49:41;14.98;118.99
16505;HTU21D;8365;51.030;4.696;2023-08-06T05:52:12;14.79;118.99
16505;HTU21D;8365;51.030;4.696;2023-08-06T05:54:42;14.93;118.99
16505;HTU21D;8365;51.030;4.696;2023-08-06T05:57:12;14.84;118.99
16505;HTU21D;8365;51.030;4.696;2023-08-06T05:59:43;14.95;118.99
16505;HTU21D;8365;51.030;4.696;2023-08-06T06:02:14;15.01;118.99
16505;HTU21D;8365;51.030;4.696;2023-08-06T06:04:44;15.00;118.99
16505;HTU21D;8365;51.030;4.696;2023-08-06T06:07:14;14.88;118.99
16505;HTU21D;8365;51.030;4.696;2023-08-06T06:09:45;14.98;118.99
16505;HTU21D;8365;51.030;4.696;2023-08-06T06:12:17;14.93;118.99
16505;HTU21D;8365;51.030;4.696;2023-08-06T06:14:48;15.00;118.99
16505;HTU21D;8365;51.030;4.696;2023-08-06T06:17:18;15.06;118.99
16505;HTU21D;8365;51.030;4.696;2023-08-06T06:19:49;15.09;118.99
16505;HTU21D;8365;51.030;4.696;2023-08-06T06:22:19;15.14;118.99
16505;HTU21D;8365;51.030;4.696;2023-08-06T06:24:50;15.32;118.99
16505;HTU21D;8365;51.030;4.696;2023-08-06T06:27:20;15.31;118.99
16505;HTU21D;8365;51.030;4.696;2023-08-06T06:29:51;15.27;118.99
16505;HTU21D;8365;51.030;4.696;2023-08-06T06:32:22;15.33;118.99
16505;HTU21D;8365;51.030;4.696;2023-08-06T06:34:53;15.43;118.99
16505;HTU21D;8365;51.030;4.696;2023-08-06T06:37:24;15.47;118.99
16505;HTU21D;8365;51.030;4.696;2023-08-06T06:39:55;15.42;118.99
16505;HTU21D;8365;51.030;4.696;2023-08-06T06:42:25;15.52;118.99
16505;HTU21D;8365;51.030;4.696;2023-08-06T06:44:56;15.81;118.99
16505;HTU21D;8365;51.030;4.696;2023-08-06T06:47:28;15.72;118.99
16505;HTU21D;8365;51.030;4.696;2023-08-06T06:49:59;15.56;118.99
16505;HTU21D;8365;51.030;4.696;2023-08-06T06:52:32;15.61;118.99
16505;HTU21D;8365;51.030;4.696;2023-08-06T06:55:02;15.61;118.99
16505;HTU21D;8365;51.030;4.696;2023-08-06T06:57:33;15.54;118.99
16505;HTU21D;8365;51.030;4.696;2023-08-06T07:00:03;15.63;118.99
16505;HTU21D;8365;51.030;4.696;2023-08-06T07:02:34;15.80;118.99
16505;HTU21D;8365;51.030;4.696;2023-08-06T07:05:04;15.81;118.99
16505;HTU21D;8365;51.030;4.696;2023-08-06T07:07:36;15.66;118.99
16505;HTU21D;8365;51.030;4.696;2023-08-06T07:10:07;15.61;118.99
16505;HTU21D;8365;51.030;4.696;2023-08-06T07:12:38;15.57;118.99
16505;HTU21D;8365;51.030;4.696;2023-08-06T07:15:09;15.56;118.99
16505;HTU21D;8365;51.030;4.696;2023-08-06T07:17:40;15.66;118.99
16505;HTU21D;8365;51.030;4.696;2023-08-06T07:20:10;15.60;118.99
16505;HTU21D;8365;51.030;4.696;2023-08-06T07:22:41;15.46;118.99
16505;HTU21D;8365;51.030;4.696;2023-08-06T07:25:11;15.43;118.99
16505;HTU21D;8365;51.030;4.696;2023-08-06T07:27:42;15.56;118.99
16505;HTU21D;8365;51.030;4.696;2023-08-06T07:30:12;15.53;118.99
16505;HTU21D;8365;51.030;4.696;2023-08-06T07:32:43;15.58;118.99
16505;HTU21D;8365;51.030;4.696;2023-08-06T07:35:14;15.49;118.99
16505;HTU21D;8365;51.030;4.696;2023-08-06T07:37:44;15.44;118.99
16505;HTU21D;8365;51.030;4.696;2023-08-06T07:40:15;15.61;118.99
16505;HTU21D;8365;51.030;4.696;2023-08-06T07:42:48;15.69;118.99
16505;HTU21D;8365;51.030;4.696;2023-08-06T07:45:20;15.70;118.99
16505;HTU21D;8365;51.030;4.696;2023-08-06T07:47:51;15.58;118.99
16505;HTU21D;8365;51.030;4.696;2023-08-06T07:50:21;15.70;118.99
16505;HTU21D;8365;51.030;4.696;2023-08-06T07:52:52;15.76;118.99
16505;HTU21D;8365;51.030;4.696;2023-08-06T07:55:22;15.76;118.99
16505;HTU21D;8365;51.030;4.696;2023-08-06T07:57:53;15.80;118.99
16505;HTU21D;8365;51.030;4.696;2023-08-06T08:00:24;15.67;118.99
16505;HTU21D;8365;51.030;4.696;2023-08-06T08:02:54;15.74;118.99
16505;HTU21D;8365;51.030;4.696;2023-08-06T08:05:25;15.76;118.99
16505;HTU21D;8365;51.030;4.696;2023-08-06T08:07:55;15.88;118.99
16505;HTU21D;8365;51.030;4.696;2023-08-06T08:10:26;16.01;118.99
16505;HTU21D;8365;51.030;4.696;2023-08-06T08:12:56;16.13;118.99
16505;HTU21D;8365;51.030;4.696;2023-08-06T08:15:28;16.14;118.99
16505;HTU21D;8365;51.030;4.696;2023-08-06T08:17:59;16.02;118.99
16505;HTU21D;8365;51.030;4.696;2023-08-06T08:20:30;16.15;118.99
16505;HTU21D;8365;51.030;4.696;2023-08-06T08:23:05;16.19;118.99
16505;HTU21D;8365;51.030;4.696;2023-08-06T08:25:36;16.27;118.99
16505;HTU21D;8365;51.030;4.696;2023-08-06T08:28:07;16.33;118.99
16505;HTU21D;8365;51.030;4.696;2023-08-06T08:30:37;16.46;118.99
16505;HTU21D;8365;51.030;4.696;2023-08-06T08:33:07;16.50;118.99
16505;HTU21D;8365;51.030;4.696;2023-08-06T08:35:38;16.24;118.99
16505;HTU21D;8365;51.030;4.696;2023-08-06T08:38:08;16.31;118.99
16505;HTU21D;8365;51.030;4.696;2023-08-06T08:40:49;16.30;118.99
16505;HTU21D;8365;51.030;4.696;2023-08-06T08:43:22;16.22;118.99
16505;HTU21D;8365;51.030;4.696;2023-08-06T08:45:54;15.99;118.99
16505;HTU21D;8365;51.030;4.696;2023-08-06T08:48:26;15.78;118.99
16505;HTU21D;8365;51.030;4.696;2023-08-06T08:50:58;15.51;118.99
16505;HTU21D;8365;51.030;4.696;2023-08-06T08:53:29;15.16;118.99
16505;HTU21D;8365;51.030;4.696;2023-08-06T08:56:00;15.24;118.99
16505;HTU21D;8365;51.030;4.696;2023-08-06T08:58:33;15.25;118.99
16505;HTU21D;8365;51.030;4.696;2023-08-06T09:01:04;15.16;118.99
16505;HTU21D;8365;51.030;4.696;2023-08-06T09:03:38;15.19;118.99
16505;HTU21D;8365;51.030;4.696;2023-08-06T09:06:11;15.17;118.99
16505;HTU21D;8365;51.030;4.696;2023-08-06T09:08:51;15.22;118.99
16505;HTU21D;8365;51.030;4.696;2023-08-06T09:11:25;15.37;118.99
16505;HTU21D;8365;51.030;4.696;2023-08-06T09:13:56;15.39;118.99
16505;HTU21D;8365;51.030;4.696;2023-08-06T09:16:26;15.36;118.99
16505;HTU21D;8365;51.030;4.696;2023-08-06T09:19:09;15.49;118.99
16505;HTU21D;8365;51.030;4.696;2023-08-06T09:21:40;15.51;118.99
16505;HTU21D;8365;51.030;4.696;2023-08-06T09:24:12;15.56;118.99
16505;HTU21D;8365;51.030;4.696;2023-08-06T09:26:44;15.58;118.99
16505;HTU21D;8365;51.030;4.696;2023-08-06T09:29:15;15.58;118.99
16505;HTU21D;8365;51.030;4.696;2023-08-06T09:31:46;15.47;118.99
16505;HTU21D;8365;51.030;4.696;2023-08-06T09:34:20;15.48;118.99
16505;HTU21D;8365;51.030;4.696;2023-08-06T09:36:54;15.46;118.99
16505;HTU21D;8365;51.030;4.696;2023-08-06T09:39:29;15.43;118.99
16505;HTU21D;8365;51.030;4.696;2023-08-06T09:42:01;15.24;118.99
16505;HTU21D;8365;51.030;4.696;2023-08-06T09:44:33;15.28;118.99
16505;HTU21D;8365;51.030;4.696;2023-08-06T09:47:04;15.00;118.99
16505;HTU21D;8365;51.030;4.696;2023-08-06T09:52:05;14.85;118.99
16505;HTU21D;8365;51.030;4.696;2023-08-06T09:54:37;14.97;118.99
16505;HTU21D;8365;51.030;4.696;2023-08-06T09:57:08;14.88;118.99
16505;HTU21D;8365;51.030;4.696;2023-08-06T09:59:42;14.85;118.99
16505;HTU21D;8365;51.030;4.696;2023-08-06T10:02:13;14.85;118.99
16505;HTU21D;8365;51.030;4.696;2023-08-06T10:04:44;14.88;118.99
16505;HTU21D;8365;51.030;4.696;2023-08-06T10:07:16;14.84;118.99
16505;HTU21D;8365;51.030;4.696;2023-08-06T10:09:48;14.80;118.99
16505;HTU21D;8365;51.030;4.696;2023-08-06T10:12:19;14.79;118.99
16505;HTU21D;8365;51.030;4.696;2023-08-06T10:14:55;14.74;118.99
16505;HTU21D;8365;51.030;4.696;2023-08-06T10:17:31;14.92;118.99
16505;HTU21D;8365;51.030;4.696;2023-08-06T10:20:04;14.89;118.99
16505;HTU21D;8365;51.030;4.696;2023-08-06T10:22:36;14.94;118.99
16505;HTU21D;8365;51.030;4.696;2023-08-06T10:25:07;14.92;118.99
16505;HTU21D;8365;51.030;4.696;2023-08-06T10:30:36;15.12;118.99
16505;HTU21D;8365;51.030;4.696;2023-08-06T10:33:11;15.06;118.99
16505;HTU21D;8365;51.030;4.696;2023-08-06T10:35:47;15.25;118.99
16505;HTU21D;8365;51.030;4.696;2023-08-06T10:38:22;15.38;118.99
16505;HTU21D;8365;51.030;4.696;2023-08-06T10:43:28;15.45;118.99
16505;HTU21D;8365;51.030;4.696;2023-08-06T10:46:03;15.51;118.99
16505;HTU21D;8365;51.030;4.696;2023-08-06T10:48:35;15.52;118.99
16505;HTU21D;8365;51.030;4.696;2023-08-06T10:51:09;15.54;118.99
16505;HTU21D;8365;51.030;4.696;2023-08-06T10:53:45;15.60;118.99
16505;HTU21D;8365;51.030;4.696;2023-08-06T10:56:21;15.51;118.99
16505;HTU21D;8365;51.030;4.696;2023-08-06T10:58:56;15.38;118.99
16505;HTU21D;8365;51.030;4.696;2023-08-06T11:01:28;15.26;118.99
16505;HTU21D;8365;51.030;4.696;2023-08-06T11:04:02;15.51;118.99
16505;HTU21D;8365;51.030;4.696;2023-08-06T11:06:33;15.33;118.99
16505;HTU21D;8365;51.030;4.696;2023-08-06T11:09:03;15.34;118.99
16505;HTU21D;8365;51.030;4.696;2023-08-06T11:11:37;15.32;118.99
16505;HTU21D;8365;51.030;4.696;2023-08-06T11:14:15;15.57;118.99
16505;HTU21D;8365;51.030;4.696;2023-08-06T11:16:45;15.84;118.99
16505;HTU21D;8365;51.030;4.696;2023-08-06T11:19:16;15.89;118.99
16505;HTU21D;8365;51.030;4.696;2023-08-06T11:21:46;15.98;118.99
16505;HTU21D;8365;51.030;4.696;2023-08-06T11:24:18;16.14;118.99
16505;HTU21D;8365;51.030;4.696;2023-08-06T11:26:48;16.20;118.99
16505;HTU21D;8365;51.030;4.696;2023-08-06T11:29:18;16.22;118.99
16505;HTU21D;8365;51.030;4.696;2023-08-06T11:31:49;15.93;118.99
16505;HTU21D;8365;51.030;4.696;2023-08-06T11:34:22;15.99;118.99
16505;HTU21D;8365;51.030;4.696;2023-08-06T11:36:56;15.92;118.99
16505;HTU21D;8365;51.030;4.696;2023-08-06T11:39:27;15.74;118.99
16505;HTU21D;8365;51.030;4.696;2023-08-06T11:41:57;16.05;118.99
16505;HTU21D;8365;51.030;4.696;2023-08-06T11:44:31;16.03;118.99
16505;HTU21D;8365;51.030;4.696;2023-08-06T11:47:04;16.17;118.99
16505;HTU21D;8365;51.030;4.696;2023-08-06T11:49:40;16.04;118.99
16505;HTU21D;8365;51.030;4.696;2023-08-06T11:52:14;15.87;118.99
16505;HTU21D;8365;51.030;4.696;2023-08-06T11:55:05;15.66;118.99
16505;HTU21D;8365;51.030;4.696;2023-08-06T11:57:45;15.53;118.99
16505;HTU21D;8365;51.030;4.696;2023-08-06T12:00:16;15.62;118.99
16505;HTU21D;8365;51.030;4.696;2023-08-06T12:02:52;15.70;118.99
16505;HTU21D;8365;51.030;4.696;2023-08-06T12:05:28;15.82;118.99
16505;HTU21D;8365;51.030;4.696;2023-08-06T12:08:01;15.56;118.99
16505;HTU21D;8365;51.030;4.696;2023-08-06T12:10:32;15.72;118.99
16505;HTU21D;8365;51.030;4.696;2023-08-06T12:13:02;15.82;118.99
16505;HTU21D;8365;51.030;4.696;2023-08-06T12:15:33;15.69;118.99
16505;HTU21D;8365;51.030;4.696;2023-08-06T12:18:03;15.59;118.99
16505;HTU21D;8365;51.030;4.696;2023-08-06T12:20:34;15.42;118.99
16505;HTU21D;8365;51.030;4.696;2023-08-06T12:23:04;15.09;118.99
16505;HTU21D;8365;51.030;4.696;2023-08-06T12:25:35;15.11;118.99
16505;HTU21D;8365;51.030;4.696;2023-08-06T12:28:05;14.94;118.99
16505;HTU21D;8365;51.030;4.696;2023-08-06T12:30:37;15.02;118.99
16505;HTU21D;8365;51.030;4.696;2023-08-06T12:33:07;15.02;118.99
16505;HTU21D;8365;51.030;4.696;2023-08-06T12:35:40;14.93;118.99
16505;HTU21D;8365;51.030;4.696;2023-08-06T12:38:11;14.96;118.99
16505;HTU21D;8365;51.030;4.696;2023-08-06T12:40:41;14.74;118.99
16505;HTU21D;8365;51.030;4.696;2023-08-06T12:43:12;14.84;118.99
16505;HTU21D;8365;51.030;4.696;2023-08-06T12:45:42;14.82;118.99
16505;HTU21D;8365;51.030;4.696;2023-08-06T12:48:13;14.86;118.99
16505;HTU21D;8365;51.030;4.696;2023-08-06T12:50:44;14.82;118.99
16505;HTU21D;8365;51.030;4.696;2023-08-06T12:53:14;14.79;118.99
16505;HTU21D;8365;51.030;4.696;2023-08-06T12:55:47;14.99;118.99
16505;HTU21D;8365;51.030;4.696;2023-08-06T12:58:18;14.99;118.99
16505;HTU21D;8365;51.030;4.696;2023-08-06T13:00:48;14.85;118.99
16505;HTU21D;8365;51.030;4.696;2023-08-06T13:03:19;15.11;118.99
16505;HTU21D;8365;51.030;4.696;2023-08-06T13:05:49;14.83;118.99
16505;HTU21D;8365;51.030;4.696;2023-08-06T13:08:19;15.10;118.99
16505;HTU21D;8365;51.030;4.696;2023-08-06T13:10:50;15.00;118.99
16505;HTU21D;8365;51.030;4.696;2023-08-06T13:13:20;14.77;118.99
16505;HTU21D;8365;51.030;4.696;2023-08-06T13:15:51;14.72;118.99
16505;HTU21D;8365;51.030;4.696;2023-08-06T13:18:21;14.84;118.99
16505;HTU21D;8365;51.030;4.696;2023-08-06T13:20:53;14.78;118.99
16505;HTU21D;8365;51.030;4.696;2023-08-06T13:23:24;14.74;118.99
16505;HTU21D;8365;51.030;4.696;2023-08-06T13:25:55;14.62;118.99
16505;HTU21D;8365;51.030;4.696;2023-08-06T13:28:25;14.49;118.99
16505;HTU21D;8365;51.030;4.696;2023-08-06T13:30:56;14.59;118.99
16505;HTU21D;8365;51.030;4.696;2023-08-06T13:33:26;14.63;118.99
16505;HTU21D;8365;51.030;4.696;2023-08-06T13:35:57;14.56;118.99
16505;HTU21D;8365;51.030;4.696;2023-08-06T13:38:29;14.54;118.99
16505;HTU21D;8365;51.030;4.696;2023-08-06T13:41:00;14.39;118.99
16505;HTU21D;8365;51.030;4.696;2023-08-06T13:43:30;14.34;118.99
16505;HTU21D;8365;51.030;4.696;2023-08-06T13:46:01;14.39;118.99
16505;HTU21D;8365;51.030;4.696;2023-08-06T13:48:31;14.32;118.99
16505;HTU21D;8365;51.030;4.696;2023-08-06T13:51:02;14.28;118.99
16505;HTU21D;8365;51.030;4.696;2023-08-06T13:53:32;14.28;118.99
16505;HTU21D;8365;51.030;4.696;2023-08-06T13:56:04;14.15;118.99
16505;HTU21D;8365;51.030;4.696;2023-08-06T13:58:35;14.00;118.99
16505;HTU21D;8365;51.030;4.696;2023-08-06T14:01:06;14.11;118.99
16505;HTU21D;8365;51.030;4.696;2023-08-06T14:03:37;14.18;118.99
16505;HTU21D;8365;51.030;4.696;2023-08-06T14:06:07;14.01;118.99
16505;HTU21D;8365;51.030;4.696;2023-08-06T14:08:38;13.97;118.99
16505;HTU21D;8365;51.030;4.696;2023-08-06T14:11:08;14.13;118.99
16505;HTU21D;8365;51.030;4.696;2023-08-06T14:13:40;14.13;118.99
16505;HTU21D;8365;51.030;4.696;2023-08-06T14:16:11;14.26;118.99
16505;HTU21D;8365;51.030;4.696;2023-08-06T14:18:41;14.14;118.99
16505;HTU21D;8365;51.030;4.696;2023-08-06T14:21:12;14.23;118.99
16505;HTU21D;8365;51.030;4.696;2023-08-06T14:23:42;14.22;118.99
16505;HTU21D;8365;51.030;4.696;2023-08-06T14:26:13;14.19;118.99
16505;HTU21D;8365;51.030;4.696;2023-08-06T14:28:45;14.27;118.99
16505;HTU21D;8365;51.030;4.696;2023-08-06T14:31:16;14.26;118.99
16505;HTU21D;8365;51.030;4.696;2023-08-06T14:33:46;14.49;118.99
16505;HTU21D;8365;51.030;4.696;2023-08-06T14:36:17;14.42;118.99
16505;HTU21D;8365;51.030;4.696;2023-08-06T14:38:47;14.53;118.99
16505;HTU21D;8365;51.030;4.696;2023-08-06T14:41:18;14.54;118.99
16505;HTU21D;8365;51.030;4.696;2023-08-06T14:43:50;14.63;118.99
16505;HTU21D;8365;51.030;4.696;2023-08-06T14:46:21;14.65;118.99
16505;HTU21D;8365;51.030;4.696;2023-08-06T14:48:52;14.67;118.99
16505;HTU21D;8365;51.030;4.696;2023-08-06T14:51:22;14.87;118.99
16505;HTU21D;8365;51.030;4.696;2023-08-06T14:53:53;14.92;118.99
16505;HTU21D;8365;51.030;4.696;2023-08-06T14:56:23;15.03;118.99
16505;HTU21D;8365;51.030;4.696;2023-08-06T14:58:54;14.86;118.99
16505;HTU21D;8365;51.030;4.696;2023-08-06T15:01:25;15.26;118.99
16505;HTU21D;8365;51.030;4.696;2023-08-06T15:03:55;15.26;118.99
16505;HTU21D;8365;51.030;4.696;2023-08-06T15:06:25;15.46;118.99
16505;HTU21D;8365;51.030;4.696;2023-08-06T15:08:56;15.23;118.99
16505;HTU21D;8365;51.030;4.696;2023-08-06T15:11:28;15.42;118.99
16505;HTU21D;8365;51.030;4.696;2023-08-06T15:13:59;15.63;118.99
16505;HTU21D;8365;51.030;4.696;2023-08-06T15:16:33;15.52;118.99
16505;HTU21D;8365;51.030;4.696;2023-08-06T15:19:04;15.49;118.99
16505;HTU21D;8365;51.030;4.696;2023-08-06T15:21:34;15.22;118.99
16505;HTU21D;8365;51.030;4.696;2023-08-06T15:24:05;15.15;118.99
16505;HTU21D;8365;51.030;4.696;2023-08-06T15:26:35;15.09;118.99
16505;HTU21D;8365;51.030;4.696;2023-08-06T15:29:08;15.17;118.99
16505;HTU21D;8365;51.030;4.696;2023-08-06T15:31:39;15.19;118.99
16505;HTU21D;8365;51.030;4.696;2023-08-06T15:34:10;15.13;118.99
16505;HTU21D;8365;51.030;4.696;2023-08-06T15:36:41;15.13;118.99
16505;HTU21D;8365;51.030;4.696;2023-08-06T15:39:11;15.22;118.99
16505;HTU21D;8365;51.030;4.696;2023-08-06T15:41:44;15.09;118.99
16505;HTU21D;8365;51.030;4.696;2023-08-06T15:44:14;15.16;118.99
16505;HTU21D;8365;51.030;4.696;2023-08-06T15:46:45;15.14;118.99
16505;HTU21D;8365;51.030;4.696;2023-08-06T15:49:15;15.13;118.99
16505;HTU21D;8365;51.030;4.696;2023-08-06T15:51:46;14.98;118.99
16505;HTU21D;8365;51.030;4.696;2023-08-06T15:54:17;14.93;118.99
16505;HTU21D;8365;51.030;4.696;2023-08-06T15:56:47;14.88;118.99